createdAt,value
2023-03-21T00:04:48.459Z,7.81
2023-03-21T00:10:04.804Z,7.82
2023-03-21T00:15:09.704Z,7.88
2023-03-21T00:20:15.355Z,7.91
2023-03-21T00:25:18.315Z,8.07
2023-03-21T00:30:22.247Z,8.07
2023-03-21T00:35:57.868Z,7.85
2023-03-21T00:40:51.434Z,7.85
2023-03-21T00:45:54.244Z,7.84
2023-03-21T00:51:00.518Z,7.81
2023-03-21T00:56:03.306Z,7.92
2023-03-21T01:01:09.313Z,8.10
2023-03-21T01:06:14.933Z,7.68
2023-03-21T01:11:19.658Z,7.73
2023-03-21T01:16:22.487Z,7.38
2023-03-21T01:21:26.735Z,7.48
2023-03-21T01:26:30.463Z,7.71
2023-03-21T01:31:33.884Z,7.54
2023-03-21T01:36:38.310Z,7.59
2023-03-21T01:41:45.310Z,7.38
2023-03-21T01:47:15.132Z,7.35
2023-03-21T01:52:37.207Z,7.41
2023-03-21T01:58:02.316Z,7.48
2023-03-21T02:03:16.930Z,7.53
2023-03-21T02:08:39.548Z,7.42
2023-03-21T02:13:48.763Z,7.40
2023-03-21T02:19:01.171Z,7.44
2023-03-21T02:24:42.742Z,7.49
2023-03-21T02:30:50.768Z,7.54
2023-03-21T02:36:17.970Z,7.52
2023-03-21T02:41:39.546Z,7.54
2023-03-21T02:46:53.788Z,7.53
2023-03-21T02:52:15.571Z,7.34
2023-03-21T02:57:25.506Z,7.24
2023-03-21T03:02:35.787Z,7.28
2023-03-21T03:07:47.627Z,7.21
2023-03-21T03:13:04.936Z,7.31
2023-03-21T03:18:14.314Z,7.44
2023-03-21T03:23:26.935Z,7.45
2023-03-21T03:28:34.094Z,7.54
2023-03-21T03:33:41.520Z,7.51
2023-03-21T03:38:47.474Z,7.59
2023-03-21T03:43:54.903Z,7.66
2023-03-21T03:49:06.492Z,7.28
2023-03-21T03:54:14.571Z,7.48
2023-03-21T03:59:21.948Z,7.67
2023-03-21T04:04:37.318Z,7.72
2023-03-21T04:09:44.605Z,7.81
2023-03-21T04:14:55.021Z,7.84
2023-03-21T04:20:11.048Z,7.89
2023-03-21T04:25:24.472Z,7.94
2023-03-21T04:30:37.777Z,7.92
2023-03-21T04:35:47.951Z,7.95
2023-03-21T04:40:50.944Z,7.85
2023-03-21T04:45:55.628Z,7.73
2023-03-21T04:50:58.662Z,7.50
2023-03-21T04:56:04.551Z,7.84
2023-03-21T05:01:09.014Z,7.87
2023-03-21T05:06:11.945Z,7.91
2023-03-21T05:11:14.732Z,7.99
2023-03-21T05:16:18.978Z,8.11
2023-03-21T05:21:21.836Z,8.05
2023-03-21T05:26:26.495Z,8.09
2023-03-21T05:31:38.650Z,8.11
2023-03-21T05:36:45.637Z,8.22
2023-03-21T05:41:48.809Z,8.18
2023-03-21T05:46:53.176Z,8.30
2023-03-21T05:52:02.080Z,8.22
2023-03-21T05:57:06.082Z,8.45
2023-03-21T06:02:28.387Z,8.43
2023-03-21T06:07:35.503Z,8.48
2023-03-21T06:12:38.812Z,8.58
2023-03-21T06:18:01.427Z,8.64
2023-03-21T06:23:04.958Z,8.70
2023-03-21T06:28:07.798Z,8.81
2023-03-21T06:33:16.824Z,8.98
2023-03-21T06:38:20.733Z,8.96
2023-03-21T06:43:25.218Z,9.03
2023-03-21T06:48:29.525Z,9.09
2023-03-21T06:53:35.119Z,9.08
2023-03-21T06:59:00.158Z,9.14
2023-03-21T07:04:23.695Z,9.38
2023-03-21T07:09:28.123Z,9.32
2023-03-21T07:14:34.561Z,9.53
2023-03-21T07:19:38.934Z,9.17
2023-03-21T07:24:41.798Z,9.58
2023-03-21T07:29:47.080Z,9.46
2023-03-21T07:34:51.226Z,9.60
2023-03-21T07:39:54.408Z,9.39
2023-03-21T07:45:01.483Z,9.64
2023-03-21T07:50:11.290Z,9.58
2023-03-21T07:55:14.120Z,9.77
2023-03-21T08:00:22.902Z,9.38
2023-03-21T08:05:29.903Z,9.14
2023-03-21T08:10:32.738Z,8.88
2023-03-21T08:15:35.928Z,8.98
2023-03-21T08:20:40.175Z,9.12
2023-03-21T08:25:42.931Z,9.21
2023-03-21T08:30:45.744Z,9.23
2023-03-21T08:35:49.975Z,8.42
2023-03-21T08:40:52.812Z,7.88
2023-03-21T08:45:56.053Z,8.30
2023-03-21T08:51:02.315Z,8.63
2023-03-21T08:56:06.230Z,8.86
2023-03-21T09:01:11.277Z,8.73
2023-03-21T09:06:15.704Z,8.68
2023-03-21T09:11:18.455Z,8.57
2023-03-21T09:16:21.272Z,8.59
2023-03-21T09:21:25.997Z,8.53
2023-03-21T09:26:28.807Z,8.53
2023-03-21T09:31:31.636Z,8.54
2023-03-21T09:36:36.474Z,8.10
2023-03-21T09:41:56.566Z,8.33
2023-03-21T09:47:04.421Z,8.02
2023-03-21T09:52:16.444Z,8.38
2023-03-21T09:57:31.226Z,8.46
2023-03-21T10:02:39.320Z,8.66
2023-03-21T10:07:50.183Z,8.76
2023-03-21T10:12:56.168Z,8.77
2023-03-21T10:18:02.384Z,8.83
2023-03-21T10:23:09.286Z,8.69
2023-03-21T10:28:17.409Z,8.81
2023-03-21T10:33:23.796Z,9.00
2023-03-21T10:38:28.203Z,9.19
2023-03-21T10:43:38.756Z,9.22
2023-03-21T10:48:46.284Z,9.73
2023-03-21T10:53:54.951Z,9.43
2023-03-21T10:59:00.582Z,9.60
2023-03-21T11:04:09.392Z,9.43
2023-03-21T11:09:17.288Z,9.55
2023-03-21T11:14:32.978Z,9.49
2023-03-21T11:19:37.357Z,9.43
2023-03-21T11:24:42.894Z,9.40
2023-03-21T11:29:48.670Z,9.26
2023-03-21T11:34:57.874Z,9.30
2023-03-21T11:40:19.422Z,8.96
2023-03-21T11:45:24.731Z,9.21
2023-03-21T11:50:32.572Z,9.41
2023-03-21T11:55:47.083Z,9.60
2023-03-21T12:00:57.204Z,9.42
2023-03-21T12:06:04.096Z,9.42
2023-03-21T12:11:16.233Z,9.41
2023-03-21T12:16:46.678Z,9.57
2023-03-21T12:22:02.249Z,9.26
2023-03-21T12:27:13.953Z,9.16
2023-03-21T12:32:36.746Z,9.44
2023-03-21T12:37:42.154Z,9.42
2023-03-21T12:43:03.185Z,9.21
2023-03-21T12:48:18.084Z,9.53
2023-03-21T12:53:40.483Z,9.34
2023-03-21T12:58:49.905Z,9.27
2023-03-21T13:04:01.344Z,9.73
2023-03-21T13:09:11.505Z,9.50
2023-03-21T13:14:22.435Z,9.44
2023-03-21T13:19:32.025Z,9.49
2023-03-21T13:24:40.625Z,9.38
2023-03-21T13:29:49.703Z,9.68
2023-03-21T13:34:56.422Z,9.62
2023-03-21T13:40:09.210Z,9.51
2023-03-21T13:45:26.019Z,9.70
2023-03-21T13:50:37.687Z,10.03
2023-03-21T13:55:43.031Z,9.57
2023-03-21T14:01:11.764Z,10.31
2023-03-21T14:06:16.191Z,10.52
2023-03-21T14:11:21.175Z,10.59
2023-03-21T14:16:28.512Z,10.75
2023-03-21T14:21:33.828Z,10.78
2023-03-21T14:26:39.001Z,10.78
2023-03-21T14:31:43.145Z,10.84
2023-03-21T14:36:55.442Z,10.90
2023-03-21T14:42:05.775Z,10.80
2023-03-21T14:47:19.110Z,10.61
2023-03-21T14:52:25.495Z,10.88
2023-03-21T14:57:30.923Z,10.84
2023-03-21T15:02:37.628Z,10.90
2023-03-21T15:07:40.816Z,10.85
2023-03-21T15:12:52.341Z,10.63
2023-03-21T15:18:01.330Z,10.73
2023-03-21T15:23:09.095Z,10.43
2023-03-21T15:28:15.304Z,10.82
2023-03-21T15:33:20.547Z,10.48
2023-03-21T15:38:29.340Z,10.34
2023-03-21T15:43:40.744Z,10.34
2023-03-21T15:48:45.448Z,10.31
2023-03-21T15:53:48.504Z,10.45
2023-03-21T15:58:53.742Z,10.16
2023-03-21T16:04:02.983Z,10.07
2023-03-21T16:09:14.032Z,9.99
2023-03-21T16:14:17.567Z,9.99
2023-03-21T16:19:22.016Z,9.79
2023-03-21T16:24:24.792Z,10.04
2023-03-21T16:29:27.624Z,10.20
2023-03-21T16:34:32.141Z,9.80
2023-03-21T16:39:34.989Z,10.25
2023-03-21T16:44:39.126Z,10.81
2023-03-21T16:49:43.574Z,10.37
2023-03-21T16:54:46.322Z,10.32
2023-03-21T16:59:49.051Z,10.28
2023-03-21T17:04:53.181Z,10.32
2023-03-21T17:09:56.012Z,10.25
2023-03-21T17:14:58.820Z,10.47
2023-03-21T17:20:04.108Z,10.36
2023-03-21T17:25:07.282Z,10.21
2023-03-21T17:30:20.986Z,10.33
2023-03-21T17:35:25.795Z,10.37
2023-03-21T17:40:31.667Z,10.22
2023-03-21T17:45:34.501Z,10.25
2023-03-21T17:50:39.463Z,10.17
2023-03-21T17:55:42.435Z,10.15
2023-03-21T18:00:46.832Z,10.16
2023-03-21T18:05:51.169Z,10.16
2023-03-21T18:10:53.957Z,10.11
2023-03-21T18:15:56.848Z,10.16
2023-03-21T18:21:01.380Z,10.24
2023-03-21T18:26:04.921Z,10.25
2023-03-21T18:31:15.751Z,10.19
2023-03-21T18:36:25.326Z,10.17
2023-03-21T18:41:29.366Z,10.20
2023-03-21T18:46:32.976Z,10.10
2023-03-21T18:51:37.302Z,10.13
2023-03-21T19:02:03.236Z,10.13
2023-03-21T19:07:08.465Z,10.19
2023-03-21T19:12:11.263Z,10.25
2023-03-21T19:18:07.183Z,10.25
2023-03-21T19:22:38.914Z,10.10
2023-03-21T19:27:42.031Z,10.27
2023-03-21T19:32:44.895Z,10.29
2023-03-21T19:37:48.971Z,10.25
2023-03-21T19:42:52.708Z,10.19
2023-03-21T19:47:55.617Z,10.21
2023-03-21T19:53:00.416Z,10.05
2023-03-21T19:58:03.243Z,9.93
2023-03-21T20:03:08.761Z,9.91
2023-03-21T20:08:13.026Z,9.80
2023-03-21T20:13:15.836Z,9.75
2023-03-21T20:18:18.609Z,9.76
2023-03-21T20:23:23.390Z,9.77
2023-03-21T20:28:28.619Z,9.73
2023-03-21T20:33:32.339Z,9.64
2023-03-21T20:38:37.085Z,9.54
2023-03-21T20:49:02.443Z,9.49
2023-03-21T20:54:06.842Z,9.37
2023-03-21T20:59:23.194Z,9.33
2023-03-21T21:04:48.193Z,9.31
2023-03-21T21:09:55.233Z,9.33
2023-03-21T21:14:58.022Z,9.46
2023-03-21T21:20:01.562Z,9.46
2023-03-21T21:25:06.625Z,9.45
2023-03-21T21:30:10.775Z,9.56
2023-03-21T21:35:13.548Z,9.53
2023-03-21T21:40:20.491Z,9.66
2023-03-21T21:45:23.349Z,9.62
2023-03-21T21:50:26.088Z,9.58
2023-03-21T21:55:30.653Z,9.59
2023-03-21T22:00:34.305Z,9.47
2023-03-21T22:05:37.281Z,9.46
2023-03-21T22:10:42.221Z,9.51
2023-03-21T22:15:47.232Z,9.44
2023-03-21T22:20:52.213Z,9.45
2023-03-21T22:25:58.177Z,9.56
2023-03-21T22:31:09.284Z,9.45
2023-03-21T22:36:13.034Z,9.37
2023-03-21T22:41:17.215Z,9.43
2023-03-21T22:46:20.119Z,9.42
2023-03-21T22:51:22.903Z,9.50
2023-03-21T22:56:27.060Z,9.40
2023-03-21T23:01:31.409Z,9.57
2023-03-21T23:06:34.723Z,9.46
2023-03-21T23:11:39.269Z,9.63
2023-03-21T23:16:42.421Z,9.52
2023-03-21T23:21:46.214Z,9.68
2023-03-21T23:26:50.446Z,9.61
2023-03-21T23:31:53.257Z,9.67
2023-03-21T23:36:56.191Z,9.54
2023-03-21T23:42:00.395Z,9.43
2023-03-21T23:47:03.292Z,9.40
2023-03-21T23:52:06.639Z,9.49
2023-03-21T23:57:10.993Z,9.57
